Terminal Aerodrome Forecast
Issued by NWS Rapid City, SD

Current Version | Previous Version | Text Only | Print | Product List | Glossary On
Versions: 1 2 3 4 5 6 7 8 9 10 11 12 13
000
FTUS43 KUNR 281100
TAFRAP
TAF
KRAP 281120Z 2812/2912 17010KT P6SM FEW100
     FM282100 22015G25KT P6SM FEW250
     FM282300 31018G28KT P6SM SCT250
     FM290200 33036G50KT P6SM BKN050=

USA.gov is the U.S. government's official web portal to all federal, state and local government web resources and services.